Terminal Aerodrome Forecast
Issued by NWS Charleston, WV

Current Version | Previous Version | Graphics & Text | Print | Product List | Glossary On
Versions: 1 2 3 4 5 6 7 8 9 10 11 12 13 14 15 16 17 18 19 20 21 22 23 24 25 26 27 28 29 30 31 32 33 34 35 36 37 38
000
FTUS41 KRLX 241500 AAB
TAFEKN
TAF AMD
KEKN 241503Z 2415/2512 34005KT P6SM BKN025
     FM241700 29005KT P6SM SCT030
     FM241800 29005KT P6SM SCT150
     FM250000 00000KT P6SM SCT200
     FM250300 00000KT P6SM BKN035
     FM250500 00000KT P6SM BKN025=

USA.gov is the U.S. government's official web portal to all federal, state and local government web resources and services.